Terminal Aerodrome Forecast
Issued by NWS

Home | Current Version | Previous Version | Text Only | Print | Product List | Glossary On
Versions: 1 2 3 4 5 6 7 8 9 10 11 12 13 14 15 16 17 18
997
FTPA31 PHFO 161737
TAFHMK
TAF
PHMK 161737Z 1618/1718 05008KT P6SM FEW025 SCT050
     FM161900 04015G24KT P6SM SCT030
     FM170500 04010G18KT P6SM VCSH SCT035 BKN050=

USA.gov is the U.S. government's official web portal to all federal, state and local government web resources and services.